sensor_id;sensor_type;location;lat;lon;timestamp;P1;durP1;ratioP1;P2;durP2;ratioP2
51066;SDS011;37112;45.892;-123.962;2023-03-26T00:00:21;32.20;;;5.30;;
51066;SDS011;37112;45.892;-123.962;2023-03-26T00:02:55;23.30;;;4.10;;
51066;SDS011;37112;45.892;-123.962;2023-03-26T00:05:13;27.20;;;5.10;;
51066;SDS011;37112;45.892;-123.962;2023-03-26T00:07:26;19.80;;;3.00;;
51066;SDS011;37112;45.892;-123.962;2023-03-26T00:09:44;30.90;;;5.00;;
51066;SDS011;37112;45.892;-123.962;2023-03-26T00:11:57;30.00;;;4.40;;
51066;SDS011;37112;45.892;-123.962;2023-03-26T00:14:16;16.90;;;3.70;;
51066;SDS011;37112;45.892;-123.962;2023-03-26T00:16:37;22.60;;;4.30;;
51066;SDS011;37112;45.892;-123.962;2023-03-26T00:18:54;19.60;;;3.40;;
51066;SDS011;37112;45.892;-123.962;2023-03-26T00:21:17;20.50;;;3.70;;
51066;SDS011;37112;45.892;-123.962;2023-03-26T00:23:35;19.50;;;3.70;;
51066;SDS011;37112;45.892;-123.962;2023-03-26T00:25:49;33.10;;;4.40;;
51066;SDS011;37112;45.892;-123.962;2023-03-26T00:28:07;28.30;;;4.10;;
51066;SDS011;37112;45.892;-123.962;2023-03-26T00:30:25;29.90;;;6.00;;
51066;SDS011;37112;45.892;-123.962;2023-03-26T00:32:47;14.80;;;3.20;;
51066;SDS011;37112;45.892;-123.962;2023-03-26T00:35:10;20.50;;;2.70;;
51066;SDS011;37112;45.892;-123.962;2023-03-26T00:37:35;13.30;;;2.10;;
51066;SDS011;37112;45.892;-123.962;2023-03-26T00:39:50;22.70;;;3.30;;
51066;SDS011;37112;45.892;-123.962;2023-03-26T00:42:06;21.40;;;4.20;;
51066;SDS011;37112;45.892;-123.962;2023-03-26T00:44:21;21.50;;;4.30;;
51066;SDS011;37112;45.892;-123.962;2023-03-26T00:46:34;28.40;;;4.60;;
51066;SDS011;37112;45.892;-123.962;2023-03-26T00:48:48;30.40;;;5.90;;
51066;SDS011;37112;45.892;-123.962;2023-03-26T00:51:06;38.50;;;5.20;;
51066;SDS011;37112;45.892;-123.962;2023-03-26T00:53:22;19.60;;;5.70;;
51066;SDS011;37112;45.892;-123.962;2023-03-26T00:55:36;18.50;;;2.60;;
51066;SDS011;37112;45.892;-123.962;2023-03-26T00:57:50;22.20;;;4.10;;
51066;SDS011;37112;45.892;-123.962;2023-03-26T01:00:05;21.50;;;4.90;;
51066;SDS011;37112;45.892;-123.962;2023-03-26T01:02:23;24.40;;;4.30;;
51066;SDS011;37112;45.892;-123.962;2023-03-26T01:04:41;33.80;;;4.80;;
51066;SDS011;37112;45.892;-123.962;2023-03-26T01:06:57;18.80;;;3.70;;
51066;SDS011;37112;45.892;-123.962;2023-03-26T01:09:20;35.60;;;5.50;;
51066;SDS011;37112;45.892;-123.962;2023-03-26T01:11:39;19.20;;;4.00;;
51066;SDS011;37112;45.892;-123.962;2023-03-26T01:13:53;13.60;;;2.40;;
51066;SDS011;37112;45.892;-123.962;2023-03-26T01:16:13;16.60;;;3.20;;
51066;SDS011;37112;45.892;-123.962;2023-03-26T01:20:48;28.10;;;4.40;;
51066;SDS011;37112;45.892;-123.962;2023-03-26T01:23:12;29.70;;;3.90;;
51066;SDS011;37112;45.892;-123.962;2023-03-26T01:25:31;25.20;;;5.60;;
51066;SDS011;37112;45.892;-123.962;2023-03-26T01:27:49;21.30;;;3.50;;
51066;SDS011;37112;45.892;-123.962;2023-03-26T01:30:06;16.70;;;3.30;;
51066;SDS011;37112;45.892;-123.962;2023-03-26T01:32:26;25.80;;;5.00;;
51066;SDS011;37112;45.892;-123.962;2023-03-26T01:34:51;25.90;;;5.00;;
51066;SDS011;37112;45.892;-123.962;2023-03-26T01:37:15;18.20;;;4.50;;
51066;SDS011;37112;45.892;-123.962;2023-03-26T01:39:39;27.80;;;4.70;;
51066;SDS011;37112;45.892;-123.962;2023-03-26T01:42:01;21.40;;;3.70;;
51066;SDS011;37112;45.892;-123.962;2023-03-26T01:44:21;32.00;;;3.30;;
51066;SDS011;37112;45.892;-123.962;2023-03-26T01:46:41;34.50;;;6.00;;
51066;SDS011;37112;45.892;-123.962;2023-03-26T01:49:00;30.80;;;5.10;;
51066;SDS011;37112;45.892;-123.962;2023-03-26T01:51:27;26.70;;;3.80;;
51066;SDS011;37112;45.892;-123.962;2023-03-26T01:53:44;28.80;;;4.80;;
51066;SDS011;37112;45.892;-123.962;2023-03-26T01:56:00;19.70;;;2.80;;
51066;SDS011;37112;45.892;-123.962;2023-03-26T01:58:24;13.20;;;2.90;;
51066;SDS011;37112;45.892;-123.962;2023-03-26T02:00:48;22.40;;;3.80;;
51066;SDS011;37112;45.892;-123.962;2023-03-26T02:03:15;25.50;;;3.10;;
51066;SDS011;37112;45.892;-123.962;2023-03-26T02:05:40;13.20;;;3.70;;
51066;SDS011;37112;45.892;-123.962;2023-03-26T02:08:01;14.40;;;3.50;;
51066;SDS011;37112;45.892;-123.962;2023-03-26T02:10:23;24.90;;;3.90;;
51066;SDS011;37112;45.892;-123.962;2023-03-26T02:12:39;16.00;;;4.00;;
51066;SDS011;37112;45.892;-123.962;2023-03-26T02:14:54;20.40;;;2.60;;
51066;SDS011;37112;45.892;-123.962;2023-03-26T02:17:08;15.10;;;3.40;;
51066;SDS011;37112;45.892;-123.962;2023-03-26T02:19:21;25.30;;;4.00;;
51066;SDS011;37112;45.892;-123.962;2023-03-26T02:21:35;30.70;;;5.60;;
51066;SDS011;37112;45.892;-123.962;2023-03-26T02:23:50;26.10;;;4.30;;
51066;SDS011;37112;45.892;-123.962;2023-03-26T02:26:12;20.30;;;3.50;;
51066;SDS011;37112;45.892;-123.962;2023-03-26T02:28:48;19.10;;;2.70;;
51066;SDS011;37112;45.892;-123.962;2023-03-26T02:31:02;22.40;;;3.70;;
51066;SDS011;37112;45.892;-123.962;2023-03-26T02:33:17;14.30;;;3.10;;
51066;SDS011;37112;45.892;-123.962;2023-03-26T02:35:31;17.20;;;3.70;;
51066;SDS011;37112;45.892;-123.962;2023-03-26T02:37:44;15.70;;;2.50;;
51066;SDS011;37112;45.892;-123.962;2023-03-26T02:40:00;12.60;;;2.60;;
51066;SDS011;37112;45.892;-123.962;2023-03-26T02:42:20;18.60;;;2.30;;
51066;SDS011;37112;45.892;-123.962;2023-03-26T02:44:33;14.60;;;2.90;;
51066;SDS011;37112;45.892;-123.962;2023-03-26T02:46:47;9.20;;;1.60;;
51066;SDS011;37112;45.892;-123.962;2023-03-26T02:49:18;17.10;;;1.70;;
51066;SDS011;37112;45.892;-123.962;2023-03-26T02:51:32;5.50;;;1.30;;
51066;SDS011;37112;45.892;-123.962;2023-03-26T02:53:58;9.10;;;1.30;;
51066;SDS011;37112;45.892;-123.962;2023-03-26T02:56:14;4.70;;;1.30;;
51066;SDS011;37112;45.892;-123.962;2023-03-26T02:58:43;2.80;;;1.00;;
51066;SDS011;37112;45.892;-123.962;2023-03-26T03:01:05;3.80;;;1.10;;
51066;SDS011;37112;45.892;-123.962;2023-03-26T03:03:27;9.20;;;2.30;;
51066;SDS011;37112;45.892;-123.962;2023-03-26T03:06:04;9.40;;;2.30;;
51066;SDS011;37112;45.892;-123.962;2023-03-26T03:08:23;10.90;;;3.20;;
51066;SDS011;37112;45.892;-123.962;2023-03-26T03:10:59;12.00;;;2.60;;
51066;SDS011;37112;45.892;-123.962;2023-03-26T03:13:23;4.10;;;2.20;;
51066;SDS011;37112;45.892;-123.962;2023-03-26T03:15:44;4.30;;;1.70;;
51066;SDS011;37112;45.892;-123.962;2023-03-26T03:18:01;6.30;;;2.00;;
51066;SDS011;37112;45.892;-123.962;2023-03-26T03:20:21;4.30;;;1.80;;
51066;SDS011;37112;45.892;-123.962;2023-03-26T03:22:37;8.80;;;2.50;;
51066;SDS011;37112;45.892;-123.962;2023-03-26T03:24:58;8.60;;;2.40;;
51066;SDS011;37112;45.892;-123.962;2023-03-26T03:27:12;10.70;;;2.80;;
51066;SDS011;37112;45.892;-123.962;2023-03-26T03:29:40;5.30;;;1.80;;
51066;SDS011;37112;45.892;-123.962;2023-03-26T03:32:29;5.70;;;2.10;;
51066;SDS011;37112;45.892;-123.962;2023-03-26T03:34:48;6.70;;;2.00;;
51066;SDS011;37112;45.892;-123.962;2023-03-26T03:37:03;5.10;;;1.90;;
51066;SDS011;37112;45.892;-123.962;2023-03-26T03:39:24;4.90;;;1.00;;
51066;SDS011;37112;45.892;-123.962;2023-03-26T03:41:39;23.20;;;9.80;;
51066;SDS011;37112;45.892;-123.962;2023-03-26T03:43:56;7.00;;;1.70;;
51066;SDS011;37112;45.892;-123.962;2023-03-26T03:46:11;12.00;;;3.50;;
51066;SDS011;37112;45.892;-123.962;2023-03-26T03:48:27;6.60;;;2.50;;
51066;SDS011;37112;45.892;-123.962;2023-03-26T03:50:46;6.50;;;1.70;;
51066;SDS011;37112;45.892;-123.962;2023-03-26T03:55:37;8.10;;;3.10;;
51066;SDS011;37112;45.892;-123.962;2023-03-26T03:57:50;3.80;;;1.30;;
51066;SDS011;37112;45.892;-123.962;2023-03-26T04:00:08;2.30;;;1.30;;
51066;SDS011;37112;45.892;-123.962;2023-03-26T04:02:26;6.40;;;1.80;;
51066;SDS011;37112;45.892;-123.962;2023-03-26T04:04:42;7.70;;;2.50;;
51066;SDS011;37112;45.892;-123.962;2023-03-26T04:06:59;4.30;;;1.80;;
51066;SDS011;37112;45.892;-123.962;2023-03-26T04:09:35;3.00;;;1.40;;
51066;SDS011;37112;45.892;-123.962;2023-03-26T04:11:54;6.70;;;1.30;;
51066;SDS011;37112;45.892;-123.962;2023-03-26T04:14:15;4.20;;;2.30;;
51066;SDS011;37112;45.892;-123.962;2023-03-26T04:16:49;6.10;;;4.60;;
51066;SDS011;37112;45.892;-123.962;2023-03-26T04:19:03;5.40;;;1.90;;
51066;SDS011;37112;45.892;-123.962;2023-03-26T04:21:17;6.70;;;2.40;;
51066;SDS011;37112;45.892;-123.962;2023-03-26T04:23:31;5.20;;;3.00;;
51066;SDS011;37112;45.892;-123.962;2023-03-26T04:25:55;4.70;;;2.30;;
51066;SDS011;37112;45.892;-123.962;2023-03-26T04:28:39;9.70;;;2.60;;
51066;SDS011;37112;45.892;-123.962;2023-03-26T04:31:03;6.10;;;2.20;;
51066;SDS011;37112;45.892;-123.962;2023-03-26T04:33:21;3.60;;;2.40;;
51066;SDS011;37112;45.892;-123.962;2023-03-26T04:35:38;7.30;;;3.50;;
51066;SDS011;37112;45.892;-123.962;2023-03-26T04:37:53;10.10;;;4.10;;
51066;SDS011;37112;45.892;-123.962;2023-03-26T04:40:13;6.40;;;2.50;;
51066;SDS011;37112;45.892;-123.962;2023-03-26T04:42:38;4.20;;;1.60;;
51066;SDS011;37112;45.892;-123.962;2023-03-26T04:45:22;4.10;;;2.00;;
51066;SDS011;37112;45.892;-123.962;2023-03-26T04:47:37;4.00;;;1.90;;
51066;SDS011;37112;45.892;-123.962;2023-03-26T04:49:50;5.40;;;2.10;;
51066;SDS011;37112;45.892;-123.962;2023-03-26T04:52:04;3.20;;;2.00;;
51066;SDS011;37112;45.892;-123.962;2023-03-26T04:54:57;3.10;;;1.60;;
51066;SDS011;37112;45.892;-123.962;2023-03-26T04:57:14;6.30;;;0.70;;
51066;SDS011;37112;45.892;-123.962;2023-03-26T04:59:39;1.50;;;0.80;;
51066;SDS011;37112;45.892;-123.962;2023-03-26T05:01:53;6.20;;;2.00;;
51066;SDS011;37112;45.892;-123.962;2023-03-26T05:04:10;5.00;;;1.40;;
51066;SDS011;37112;45.892;-123.962;2023-03-26T05:06:23;4.80;;;1.60;;
51066;SDS011;37112;45.892;-123.962;2023-03-26T05:08:38;2.90;;;1.20;;
51066;SDS011;37112;45.892;-123.962;2023-03-26T05:11:03;1.10;;;0.90;;
51066;SDS011;37112;45.892;-123.962;2023-03-26T05:13:18;5.00;;;2.00;;
51066;SDS011;37112;45.892;-123.962;2023-03-26T05:15:33;2.90;;;1.20;;
51066;SDS011;37112;45.892;-123.962;2023-03-26T05:18:06;3.50;;;1.40;;
51066;SDS011;37112;45.892;-123.962;2023-03-26T05:20:23;9.30;;;2.10;;
51066;SDS011;37112;45.892;-123.962;2023-03-26T05:22:39;8.30;;;3.00;;
51066;SDS011;37112;45.892;-123.962;2023-03-26T05:25:07;7.10;;;4.00;;
51066;SDS011;37112;45.892;-123.962;2023-03-26T05:27:24;4.30;;;1.70;;
51066;SDS011;37112;45.892;-123.962;2023-03-26T05:29:38;4.60;;;1.30;;
51066;SDS011;37112;45.892;-123.962;2023-03-26T05:31:51;7.50;;;1.70;;
51066;SDS011;37112;45.892;-123.962;2023-03-26T05:34:08;2.30;;;0.80;;
51066;SDS011;37112;45.892;-123.962;2023-03-26T05:36:21;2.50;;;0.90;;
51066;SDS011;37112;45.892;-123.962;2023-03-26T05:39:04;3.70;;;1.70;;
51066;SDS011;37112;45.892;-123.962;2023-03-26T05:41:38;4.10;;;2.00;;
51066;SDS011;37112;45.892;-123.962;2023-03-26T05:43:51;5.30;;;2.20;;
51066;SDS011;37112;45.892;-123.962;2023-03-26T05:46:07;5.60;;;2.30;;
51066;SDS011;37112;45.892;-123.962;2023-03-26T05:48:21;4.10;;;1.90;;
51066;SDS011;37112;45.892;-123.962;2023-03-26T05:50:46;4.00;;;1.30;;
51066;SDS011;37112;45.892;-123.962;2023-03-26T05:53:01;2.90;;;1.00;;
51066;SDS011;37112;45.892;-123.962;2023-03-26T05:55:32;3.20;;;1.00;;
51066;SDS011;37112;45.892;-123.962;2023-03-26T05:58:05;3.90;;;1.20;;
51066;SDS011;37112;45.892;-123.962;2023-03-26T06:00:57;5.30;;;1.50;;
51066;SDS011;37112;45.892;-123.962;2023-03-26T06:03:38;4.10;;;1.60;;
51066;SDS011;37112;45.892;-123.962;2023-03-26T06:05:57;2.30;;;1.20;;
51066;SDS011;37112;45.892;-123.962;2023-03-26T06:08:21;3.00;;;1.20;;
51066;SDS011;37112;45.892;-123.962;2023-03-26T06:10:35;6.60;;;1.50;;
51066;SDS011;37112;45.892;-123.962;2023-03-26T06:12:51;2.00;;;0.90;;
51066;SDS011;37112;45.892;-123.962;2023-03-26T06:15:06;2.80;;;1.10;;
51066;SDS011;37112;45.892;-123.962;2023-03-26T06:17:36;1.30;;;0.80;;
51066;SDS011;37112;45.892;-123.962;2023-03-26T06:20:19;1.40;;;0.70;;
51066;SDS011;37112;45.892;-123.962;2023-03-26T06:22:32;0.80;;;0.60;;
51066;SDS011;37112;45.892;-123.962;2023-03-26T06:25:00;5.80;;;1.40;;
51066;SDS011;37112;45.892;-123.962;2023-03-26T06:27:23;1.10;;;0.80;;
51066;SDS011;37112;45.892;-123.962;2023-03-26T06:29:54;3.90;;;0.90;;
51066;SDS011;37112;45.892;-123.962;2023-03-26T06:32:16;1.60;;;0.80;;
51066;SDS011;37112;45.892;-123.962;2023-03-26T06:34:34;1.70;;;0.60;;
51066;SDS011;37112;45.892;-123.962;2023-03-26T06:36:47;2.80;;;0.70;;
51066;SDS011;37112;45.892;-123.962;2023-03-26T06:39:02;2.50;;;0.80;;
51066;SDS011;37112;45.892;-123.962;2023-03-26T06:41:20;1.20;;;0.60;;
51066;SDS011;37112;45.892;-123.962;2023-03-26T06:43:50;2.70;;;1.10;;
51066;SDS011;37112;45.892;-123.962;2023-03-26T06:46:15;4.50;;;1.00;;
51066;SDS011;37112;45.892;-123.962;2023-03-26T06:48:49;4.60;;;1.00;;
51066;SDS011;37112;45.892;-123.962;2023-03-26T06:51:26;3.20;;;0.90;;
51066;SDS011;37112;45.892;-123.962;2023-03-26T06:53:42;4.10;;;1.40;;
51066;SDS011;37112;45.892;-123.962;2023-03-26T06:56:07;1.10;;;0.90;;
51066;SDS011;37112;45.892;-123.962;2023-03-26T06:58:39;6.10;;;1.00;;
51066;SDS011;37112;45.892;-123.962;2023-03-26T07:01:16;4.70;;;1.00;;
51066;SDS011;37112;45.892;-123.962;2023-03-26T07:03:48;1.60;;;0.80;;
51066;SDS011;37112;45.892;-123.962;2023-03-26T07:06:23;3.70;;;1.00;;
51066;SDS011;37112;45.892;-123.962;2023-03-26T07:09:04;3.40;;;0.80;;
51066;SDS011;37112;45.892;-123.962;2023-03-26T07:11:36;4.20;;;1.00;;
51066;SDS011;37112;45.892;-123.962;2023-03-26T07:14:07;1.90;;;0.80;;
51066;SDS011;37112;45.892;-123.962;2023-03-26T07:16:40;7.90;;;1.10;;
51066;SDS011;37112;45.892;-123.962;2023-03-26T07:19:13;3.30;;;0.80;;
51066;SDS011;37112;45.892;-123.962;2023-03-26T07:21:27;1.60;;;0.80;;
51066;SDS011;37112;45.892;-123.962;2023-03-26T07:23:46;3.70;;;1.10;;
51066;SDS011;37112;45.892;-123.962;2023-03-26T07:26:24;1.60;;;0.80;;
51066;SDS011;37112;45.892;-123.962;2023-03-26T07:28:57;4.00;;;1.50;;
51066;SDS011;37112;45.892;-123.962;2023-03-26T07:31:35;1.80;;;0.90;;
51066;SDS011;37112;45.892;-123.962;2023-03-26T07:34:30;2.00;;;0.70;;
51066;SDS011;37112;45.892;-123.962;2023-03-26T07:37:10;3.20;;;1.10;;
51066;SDS011;37112;45.892;-123.962;2023-03-26T07:39:53;3.20;;;1.60;;
51066;SDS011;37112;45.892;-123.962;2023-03-26T07:42:48;4.90;;;0.90;;
51066;SDS011;37112;45.892;-123.962;2023-03-26T07:45:48;1.80;;;1.00;;
51066;SDS011;37112;45.892;-123.962;2023-03-26T07:48:11;2.80;;;0.80;;
51066;SDS011;37112;45.892;-123.962;2023-03-26T07:50:55;1.20;;;0.70;;
51066;SDS011;37112;45.892;-123.962;2023-03-26T07:53:41;1.30;;;0.90;;
51066;SDS011;37112;45.892;-123.962;2023-03-26T07:56:16;5.60;;;1.20;;
51066;SDS011;37112;45.892;-123.962;2023-03-26T07:58:48;1.30;;;0.80;;
51066;SDS011;37112;45.892;-123.962;2023-03-26T08:01:24;2.50;;;0.90;;
51066;SDS011;37112;45.892;-123.962;2023-03-26T08:04:12;3.90;;;0.80;;
51066;SDS011;37112;45.892;-123.962;2023-03-26T08:07:07;7.30;;;0.80;;
51066;SDS011;37112;45.892;-123.962;2023-03-26T08:09:48;5.10;;;1.70;;
51066;SDS011;37112;45.892;-123.962;2023-03-26T08:12:43;3.40;;;0.70;;
51066;SDS011;37112;45.892;-123.962;2023-03-26T08:17:22;1.50;;;0.80;;
51066;SDS011;37112;45.892;-123.962;2023-03-26T08:19:47;5.10;;;1.20;;
51066;SDS011;37112;45.892;-123.962;2023-03-26T08:22:15;3.20;;;0.90;;
51066;SDS011;37112;45.892;-123.962;2023-03-26T08:24:36;6.40;;;0.80;;
51066;SDS011;37112;45.892;-123.962;2023-03-26T08:27:02;2.70;;;0.90;;
51066;SDS011;37112;45.892;-123.962;2023-03-26T08:29:24;6.00;;;1.60;;
51066;SDS011;37112;45.892;-123.962;2023-03-26T08:31:46;6.10;;;0.90;;
51066;SDS011;37112;45.892;-123.962;2023-03-26T08:34:02;6.10;;;1.00;;
51066;SDS011;37112;45.892;-123.962;2023-03-26T08:36:15;2.60;;;1.00;;
51066;SDS011;37112;45.892;-123.962;2023-03-26T08:38:28;4.10;;;0.70;;
51066;SDS011;37112;45.892;-123.962;2023-03-26T08:40:59;3.00;;;1.00;;
51066;SDS011;37112;45.892;-123.962;2023-03-26T08:46:18;4.00;;;1.20;;
51066;SDS011;37112;45.892;-123.962;2023-03-26T08:54:49;5.30;;;0.70;;
51066;SDS011;37112;45.892;-123.962;2023-03-26T09:00:37;5.60;;;1.00;;
51066;SDS011;37112;45.892;-123.962;2023-03-26T09:14:09;3.50;;;0.90;;
51066;SDS011;37112;45.892;-123.962;2023-03-26T09:25:18;1.90;;;0.70;;
51066;SDS011;37112;45.892;-123.962;2023-03-26T09:27:55;6.10;;;1.10;;
51066;SDS011;37112;45.892;-123.962;2023-03-26T09:30:33;7.10;;;1.30;;
51066;SDS011;37112;45.892;-123.962;2023-03-26T09:36:09;2.70;;;1.20;;
51066;SDS011;37112;45.892;-123.962;2023-03-26T09:39:12;6.70;;;1.10;;
51066;SDS011;37112;45.892;-123.962;2023-03-26T09:41:35;4.80;;;1.40;;
51066;SDS011;37112;45.892;-123.962;2023-03-26T09:46:57;5.70;;;1.30;;
51066;SDS011;37112;45.892;-123.962;2023-03-26T09:49:39;3.10;;;1.20;;
51066;SDS011;37112;45.892;-123.962;2023-03-26T09:52:04;2.40;;;1.00;;
51066;SDS011;37112;45.892;-123.962;2023-03-26T09:54:32;7.10;;;1.40;;
51066;SDS011;37112;45.892;-123.962;2023-03-26T09:57:16;4.70;;;1.60;;
51066;SDS011;37112;45.892;-123.962;2023-03-26T09:59:39;11.20;;;1.70;;
51066;SDS011;37112;45.892;-123.962;2023-03-26T10:02:24;11.90;;;2.10;;
51066;SDS011;37112;45.892;-123.962;2023-03-26T10:04:58;13.50;;;2.50;;
51066;SDS011;37112;45.892;-123.962;2023-03-26T10:07:34;10.70;;;2.80;;
51066;SDS011;37112;45.892;-123.962;2023-03-26T10:09:55;24.30;;;2.20;;
51066;SDS011;37112;45.892;-123.962;2023-03-26T10:12:19;19.30;;;3.60;;
51066;SDS011;37112;45.892;-123.962;2023-03-26T10:14:37;21.50;;;3.20;;
51066;SDS011;37112;45.892;-123.962;2023-03-26T10:16:54;34.40;;;4.60;;
51066;SDS011;37112;45.892;-123.962;2023-03-26T10:19:18;13.60;;;4.10;;
51066;SDS011;37112;45.892;-123.962;2023-03-26T10:21:49;19.70;;;4.20;;
51066;SDS011;37112;45.892;-123.962;2023-03-26T10:24:11;32.40;;;5.30;;
51066;SDS011;37112;45.892;-123.962;2023-03-26T10:26:45;27.10;;;4.70;;
51066;SDS011;37112;45.892;-123.962;2023-03-26T10:31:51;18.10;;;3.10;;
51066;SDS011;37112;45.892;-123.962;2023-03-26T10:34:12;35.40;;;6.50;;
51066;SDS011;37112;45.892;-123.962;2023-03-26T10:36:36;69.40;;;9.10;;
51066;SDS011;37112;45.892;-123.962;2023-03-26T10:38:56;21.60;;;4.70;;
51066;SDS011;37112;45.892;-123.962;2023-03-26T10:41:40;15.60;;;2.50;;
51066;SDS011;37112;45.892;-123.962;2023-03-26T10:44:18;21.20;;;5.10;;
51066;SDS011;37112;45.892;-123.962;2023-03-26T10:46:48;34.60;;;4.80;;
51066;SDS011;37112;45.892;-123.962;2023-03-26T10:49:32;25.70;;;5.60;;
51066;SDS011;37112;45.892;-123.962;2023-03-26T10:52:01;25.00;;;4.50;;
51066;SDS011;37112;45.892;-123.962;2023-03-26T10:54:16;11.80;;;2.30;;
51066;SDS011;37112;45.892;-123.962;2023-03-26T10:56:47;29.40;;;4.20;;
51066;SDS011;37112;45.892;-123.962;2023-03-26T10:58:58;37.20;;;4.00;;
51066;SDS011;37112;45.892;-123.962;2023-03-26T11:01:14;18.50;;;3.40;;
51066;SDS011;37112;45.892;-123.962;2023-03-26T11:03:44;27.70;;;4.70;;
51066;SDS011;37112;45.892;-123.962;2023-03-26T11:05:59;14.10;;;2.80;;
51066;SDS011;37112;45.892;-123.962;2023-03-26T11:08:19;19.50;;;5.20;;
51066;SDS011;37112;45.892;-123.962;2023-03-26T11:10:41;17.80;;;2.90;;
51066;SDS011;37112;45.892;-123.962;2023-03-26T11:13:02;6.40;;;1.80;;
51066;SDS011;37112;45.892;-123.962;2023-03-26T11:15:21;16.50;;;3.10;;
51066;SDS011;37112;45.892;-123.962;2023-03-26T11:17:39;7.30;;;1.90;;
51066;SDS011;37112;45.892;-123.962;2023-03-26T11:19:57;16.00;;;2.90;;
51066;SDS011;37112;45.892;-123.962;2023-03-26T11:22:19;14.60;;;2.50;;
51066;SDS011;37112;45.892;-123.962;2023-03-26T11:24:46;8.10;;;1.80;;
51066;SDS011;37112;45.892;-123.962;2023-03-26T11:27:22;8.00;;;1.90;;
51066;SDS011;37112;45.892;-123.962;2023-03-26T11:29:46;14.30;;;2.90;;
51066;SDS011;37112;45.892;-123.962;2023-03-26T11:32:02;9.20;;;2.10;;
51066;SDS011;37112;45.892;-123.962;2023-03-26T11:34:19;13.60;;;3.40;;
51066;SDS011;37112;45.892;-123.962;2023-03-26T11:36:34;5.20;;;2.00;;
51066;SDS011;37112;45.892;-123.962;2023-03-26T11:38:50;9.70;;;2.00;;
51066;SDS011;37112;45.892;-123.962;2023-03-26T11:41:13;6.90;;;2.00;;
51066;SDS011;37112;45.892;-123.962;2023-03-26T11:43:32;4.60;;;1.70;;
51066;SDS011;37112;45.892;-123.962;2023-03-26T11:45:44;13.20;;;2.30;;
51066;SDS011;37112;45.892;-123.962;2023-03-26T11:47:57;8.10;;;1.90;;
51066;SDS011;37112;45.892;-123.962;2023-03-26T11:50:15;5.80;;;1.40;;
51066;SDS011;37112;45.892;-123.962;2023-03-26T11:52:30;8.40;;;2.60;;
51066;SDS011;37112;45.892;-123.962;2023-03-26T11:54:40;5.00;;;1.20;;
51066;SDS011;37112;45.892;-123.962;2023-03-26T11:56:56;7.10;;;1.30;;
51066;SDS011;37112;45.892;-123.962;2023-03-26T11:59:11;8.00;;;1.50;;
51066;SDS011;37112;45.892;-123.962;2023-03-26T12:01:26;14.00;;;2.50;;
51066;SDS011;37112;45.892;-123.962;2023-03-26T12:04:02;10.60;;;2.70;;
51066;SDS011;37112;45.892;-123.962;2023-03-26T12:06:23;25.60;;;4.80;;
51066;SDS011;37112;45.892;-123.962;2023-03-26T12:08:37;29.40;;;4.50;;
51066;SDS011;37112;45.892;-123.962;2023-03-26T12:10:57;27.00;;;4.60;;
51066;SDS011;37112;45.892;-123.962;2023-03-26T12:13:22;35.50;;;4.00;;
51066;SDS011;37112;45.892;-123.962;2023-03-26T12:15:42;29.00;;;4.60;;
51066;SDS011;37112;45.892;-123.962;2023-03-26T12:17:53;8.50;;;2.10;;
51066;SDS011;37112;45.892;-123.962;2023-03-26T12:22:37;33.50;;;6.50;;
51066;SDS011;37112;45.892;-123.962;2023-03-26T12:24:50;15.70;;;3.60;;
51066;SDS011;37112;45.892;-123.962;2023-03-26T12:27:20;25.80;;;4.00;;
51066;SDS011;37112;45.892;-123.962;2023-03-26T12:29:35;23.70;;;4.00;;
51066;SDS011;37112;45.892;-123.962;2023-03-26T12:31:55;25.40;;;4.30;;
51066;SDS011;37112;45.892;-123.962;2023-03-26T12:34:15;34.40;;;4.40;;
51066;SDS011;37112;45.892;-123.962;2023-03-26T12:36:27;25.30;;;2.50;;
51066;SDS011;37112;45.892;-123.962;2023-03-26T12:38:40;24.80;;;4.40;;
51066;SDS011;37112;45.892;-123.962;2023-03-26T12:41:11;18.30;;;2.90;;
51066;SDS011;37112;45.892;-123.962;2023-03-26T12:43:44;27.50;;;4.50;;
51066;SDS011;37112;45.892;-123.962;2023-03-26T12:48:55;23.40;;;4.50;;
51066;SDS011;37112;45.892;-123.962;2023-03-26T12:51:08;17.90;;;2.90;;
51066;SDS011;37112;45.892;-123.962;2023-03-26T12:53:30;8.70;;;1.50;;
51066;SDS011;37112;45.892;-123.962;2023-03-26T12:55:52;12.40;;;2.00;;
51066;SDS011;37112;45.892;-123.962;2023-03-26T12:58:14;23.40;;;3.40;;
51066;SDS011;37112;45.892;-123.962;2023-03-26T13:00:47;17.20;;;2.80;;
51066;SDS011;37112;45.892;-123.962;2023-03-26T13:03:25;17.50;;;3.50;;
51066;SDS011;37112;45.892;-123.962;2023-03-26T13:05:55;38.00;;;3.60;;
51066;SDS011;37112;45.892;-123.962;2023-03-26T13:10:56;27.40;;;3.40;;
51066;SDS011;37112;45.892;-123.962;2023-03-26T13:13:20;14.40;;;2.00;;
51066;SDS011;37112;45.892;-123.962;2023-03-26T13:16:01;16.80;;;1.50;;
51066;SDS011;37112;45.892;-123.962;2023-03-26T13:18:19;15.60;;;1.90;;
51066;SDS011;37112;45.892;-123.962;2023-03-26T13:20:42;12.30;;;1.40;;
51066;SDS011;37112;45.892;-123.962;2023-03-26T13:23:03;10.40;;;1.70;;
51066;SDS011;37112;45.892;-123.962;2023-03-26T13:25:26;8.10;;;1.60;;
51066;SDS011;37112;45.892;-123.962;2023-03-26T13:27:46;13.00;;;1.30;;
51066;SDS011;37112;45.892;-123.962;2023-03-26T13:30:06;6.80;;;1.40;;
51066;SDS011;37112;45.892;-123.962;2023-03-26T13:32:37;12.10;;;1.60;;
51066;SDS011;37112;45.892;-123.962;2023-03-26T13:35:01;6.20;;;1.40;;
51066;SDS011;37112;45.892;-123.962;2023-03-26T13:37:26;5.60;;;0.90;;
51066;SDS011;37112;45.892;-123.962;2023-03-26T13:39:44;7.80;;;1.40;;
51066;SDS011;37112;45.892;-123.962;2023-03-26T13:42:13;11.20;;;1.70;;
51066;SDS011;37112;45.892;-123.962;2023-03-26T13:44:40;19.30;;;3.30;;
51066;SDS011;37112;45.892;-123.962;2023-03-26T13:47:11;5.40;;;1.60;;
51066;SDS011;37112;45.892;-123.962;2023-03-26T13:49:27;6.30;;;1.40;;
51066;SDS011;37112;45.892;-123.962;2023-03-26T13:51:43;7.60;;;1.20;;
51066;SDS011;37112;45.892;-123.962;2023-03-26T13:53:57;7.50;;;1.50;;
51066;SDS011;37112;45.892;-123.962;2023-03-26T13:56:12;9.30;;;1.20;;
51066;SDS011;37112;45.892;-123.962;2023-03-26T13:58:30;7.40;;;1.40;;
51066;SDS011;37112;45.892;-123.962;2023-03-26T14:00:53;9.30;;;1.20;;
51066;SDS011;37112;45.892;-123.962;2023-03-26T14:03:09;2.70;;;1.10;;
51066;SDS011;37112;45.892;-123.962;2023-03-26T14:05:32;13.30;;;2.20;;
51066;SDS011;37112;45.892;-123.962;2023-03-26T14:07:47;6.20;;;1.20;;
51066;SDS011;37112;45.892;-123.962;2023-03-26T14:10:02;15.10;;;3.30;;
51066;SDS011;37112;45.892;-123.962;2023-03-26T14:12:31;5.50;;;1.50;;
51066;SDS011;37112;45.892;-123.962;2023-03-26T14:14:55;13.50;;;2.60;;
51066;SDS011;37112;45.892;-123.962;2023-03-26T14:17:11;11.40;;;2.20;;
51066;SDS011;37112;45.892;-123.962;2023-03-26T14:19:36;7.70;;;1.50;;
51066;SDS011;37112;45.892;-123.962;2023-03-26T14:22:06;6.40;;;1.50;;
51066;SDS011;37112;45.892;-123.962;2023-03-26T14:24:38;8.50;;;1.90;;
51066;SDS011;37112;45.892;-123.962;2023-03-26T14:27:16;5.20;;;1.00;;
51066;SDS011;37112;45.892;-123.962;2023-03-26T14:29:51;11.90;;;1.80;;
51066;SDS011;37112;45.892;-123.962;2023-03-26T14:32:17;3.60;;;0.90;;
51066;SDS011;37112;45.892;-123.962;2023-03-26T14:37:04;8.10;;;1.40;;
51066;SDS011;37112;45.892;-123.962;2023-03-26T14:39:52;22.00;;;2.60;;